createdAt,value
2018-12-20T00:02:12.045Z,57.00
2018-12-20T00:04:40.295Z,56.37
2018-12-20T00:07:08.648Z,54.10
2018-12-20T00:09:37.068Z,52.13
2018-12-20T00:12:05.415Z,55.17
2018-12-20T00:14:33.760Z,57.43
2018-12-20T00:17:07.868Z,59.20
2018-12-20T00:19:36.208Z,54.03
2018-12-20T00:22:04.555Z,57.60
2018-12-20T00:24:32.916Z,57.20
2018-12-20T00:27:01.413Z,55.73
2018-12-20T00:29:29.807Z,55.77
2018-12-20T00:31:57.897Z,53.97
2018-12-20T00:34:26.609Z,59.23
2018-12-20T00:36:54.633Z,51.93
2018-12-20T00:39:22.940Z,50.57
2018-12-20T00:41:51.248Z,56.13
2018-12-20T00:44:19.656Z,49.30
2018-12-20T00:46:47.902Z,51.57
2018-12-20T00:49:16.237Z,49.20
2018-12-20T00:51:44.563Z,51.17
2018-12-20T00:54:13.332Z,56.77
2018-12-20T00:56:41.674Z,51.87
2018-12-20T00:59:10.371Z,50.93
2018-12-20T01:01:38.874Z,55.80
2018-12-20T01:04:07.047Z,55.13
2018-12-20T01:06:35.354Z,54.43
2018-12-20T01:09:03.739Z,51.83
2018-12-20T01:11:32.008Z,53.60
2018-12-20T01:14:00.339Z,52.03
2018-12-20T01:16:28.876Z,57.23
2018-12-20T01:18:57.145Z,58.47
2018-12-20T01:21:25.611Z,52.10
2018-12-20T01:23:53.743Z,55.23
2018-12-20T01:26:22.093Z,51.93
2018-12-20T01:28:50.618Z,55.17
2018-12-20T01:31:18.817Z,53.20
2018-12-20T01:33:47.043Z,53.90
2018-12-20T01:36:15.413Z,51.87
2018-12-20T01:38:43.787Z,53.33
2018-12-20T01:41:12.069Z,51.53
2018-12-20T01:43:40.315Z,55.33
2018-12-20T01:46:09.098Z,55.33
2018-12-20T01:48:37.270Z,54.73
2018-12-20T01:51:05.610Z,48.53
2018-12-20T01:53:33.946Z,57.00
2018-12-20T01:56:02.349Z,54.20
2018-12-20T01:58:30.617Z,52.63
2018-12-20T02:00:58.994Z,50.00
2018-12-20T02:03:27.369Z,52.83
2018-12-20T02:05:55.614Z,52.57
2018-12-20T02:08:24.015Z,54.03
2018-12-20T02:10:52.273Z,59.33
2018-12-20T02:13:20.747Z,54.97
2018-12-20T02:15:48.961Z,54.13
2018-12-20T02:18:17.259Z,50.80
2018-12-20T02:20:45.757Z,55.27
2018-12-20T02:23:14.015Z,55.03
2018-12-20T02:25:42.247Z,55.90
2018-12-20T02:28:10.586Z,54.53
2018-12-20T02:30:38.900Z,54.63
2018-12-20T02:33:07.335Z,52.80
2018-12-20T02:35:35.749Z,54.87
2018-12-20T02:38:04.041Z,50.30
2018-12-20T02:40:32.323Z,53.90
2018-12-20T02:43:00.562Z,55.93
2018-12-20T02:45:28.896Z,54.13
2018-12-20T02:47:57.179Z,52.03
2018-12-20T02:50:25.529Z,53.30
2018-12-20T02:52:53.912Z,53.73
2018-12-20T02:55:22.238Z,52.80
2018-12-20T02:57:50.913Z,54.23
2018-12-20T03:00:19.135Z,55.23
2018-12-20T03:02:47.472Z,53.73
2018-12-20T03:05:15.801Z,53.73
2018-12-20T03:07:44.181Z,52.27
2018-12-20T03:10:12.762Z,54.80
2018-12-20T03:12:40.802Z,52.53
2018-12-20T03:15:09.331Z,56.20
2018-12-20T03:17:37.647Z,52.00
2018-12-20T03:20:05.816Z,51.07
2018-12-20T03:22:34.475Z,51.27
2018-12-20T03:25:02.490Z,50.47
2018-12-20T03:27:31.658Z,50.00
2018-12-20T03:29:59.945Z,54.50
2018-12-20T03:32:28.191Z,50.47
2018-12-20T03:34:56.516Z,53.90
2018-12-20T03:37:24.919Z,52.47
2018-12-20T03:39:53.262Z,52.33
2018-12-20T03:42:21.692Z,52.03
2018-12-20T03:44:49.881Z,54.93
2018-12-20T03:47:18.177Z,53.27
2018-12-20T03:49:46.502Z,52.70
2018-12-20T03:52:14.931Z,55.77
2018-12-20T03:54:43.184Z,53.27
2018-12-20T03:57:11.507Z,52.20
2018-12-20T03:59:39.836Z,55.33
2018-12-20T04:02:08.479Z,56.10
2018-12-20T04:04:36.640Z,51.47
2018-12-20T04:07:04.972Z,52.13
2018-12-20T04:09:33.342Z,53.87
2018-12-20T04:12:01.766Z,52.67
2018-12-20T04:14:30.046Z,52.87
2018-12-20T04:16:58.295Z,57.13
2018-12-20T04:19:26.646Z,51.10
2018-12-20T04:21:55.175Z,57.53
2018-12-20T04:24:23.155Z,52.00
2018-12-20T04:26:51.477Z,54.70
2018-12-20T04:29:19.959Z,55.33
2018-12-20T04:31:48.357Z,55.50
2018-12-20T04:34:16.529Z,63.93
2018-12-20T04:36:44.799Z,50.67
2018-12-20T04:39:13.169Z,47.63
2018-12-20T04:41:41.460Z,49.67
2018-12-20T04:44:10.002Z,51.37
2018-12-20T04:46:38.110Z,48.80
2018-12-20T04:49:06.618Z,52.40
2018-12-20T04:51:35.317Z,51.97
2018-12-20T04:54:03.109Z,53.27
2018-12-20T04:56:31.438Z,57.63
2018-12-20T04:58:59.995Z,55.80
2018-12-20T05:01:28.346Z,116.43
2018-12-20T05:03:56.510Z,56.83
2018-12-20T05:06:24.850Z,52.83
2018-12-20T05:08:53.129Z,51.53
2018-12-20T05:11:21.682Z,52.83
2018-12-20T05:13:49.784Z,52.00
2018-12-20T05:16:18.143Z,50.20
2018-12-20T05:18:46.504Z,48.07
2018-12-20T05:21:14.898Z,48.80
2018-12-20T05:23:43.100Z,52.83
2018-12-20T05:26:11.432Z,51.50
2018-12-20T05:28:39.790Z,51.57
2018-12-20T05:31:08.809Z,49.13
2018-12-20T05:33:36.508Z,53.77
2018-12-20T05:36:04.834Z,59.57
2018-12-20T05:38:33.121Z,48.47
2018-12-20T05:41:01.446Z,48.83
2018-12-20T05:43:29.822Z,48.17
2018-12-20T05:46:04.388Z,53.83
2018-12-20T05:48:26.742Z,50.63
2018-12-20T05:50:54.904Z,52.07
2018-12-20T05:53:23.178Z,43.93
2018-12-20T05:55:51.539Z,53.03
2018-12-20T05:58:19.875Z,52.00
2018-12-20T06:00:48.451Z,46.40
2018-12-20T06:03:16.729Z,49.40
2018-12-20T06:05:45.013Z,48.70
2018-12-20T06:08:13.188Z,47.60
2018-12-20T06:10:41.644Z,53.97
2018-12-20T06:13:09.936Z,53.63
2018-12-20T06:15:38.198Z,52.07
2018-12-20T06:18:06.691Z,50.13
2018-12-20T06:20:34.939Z,51.47
2018-12-20T06:23:03.198Z,53.67
2018-12-20T06:25:31.901Z,51.70
2018-12-20T06:28:00.230Z,52.23
2018-12-20T06:30:28.575Z,50.93
2018-12-20T06:32:56.907Z,53.37
2018-12-20T06:35:25.245Z,53.50
2018-12-20T06:37:53.568Z,52.90
2018-12-20T06:40:21.900Z,51.77
2018-12-20T06:42:50.243Z,48.00
2018-12-20T06:45:18.564Z,49.73
2018-12-20T06:47:46.901Z,56.80
2018-12-20T06:50:15.236Z,53.30
2018-12-20T06:52:43.570Z,52.17
2018-12-20T06:55:11.896Z,51.53
2018-12-20T06:57:40.224Z,49.93
2018-12-20T07:00:08.561Z,49.60
2018-12-20T07:02:38.504Z,47.77
2018-12-20T07:05:05.229Z,47.33
2018-12-20T07:07:33.816Z,50.43
2018-12-20T07:10:01.917Z,48.83
2018-12-20T07:12:30.258Z,46.50
2018-12-20T07:14:58.816Z,44.53
2018-12-20T07:17:26.916Z,45.73
2018-12-20T07:19:55.259Z,49.33
2018-12-20T07:22:23.587Z,45.70
2018-12-20T07:24:51.926Z,50.17
2018-12-20T07:27:20.258Z,45.60
2018-12-20T07:29:48.586Z,44.47
2018-12-20T07:32:24.801Z,48.37
2018-12-20T07:34:48.013Z,48.10
2018-12-20T07:37:13.589Z,43.90
2018-12-20T07:39:42.832Z,54.40
2018-12-20T07:42:11.180Z,43.53
2018-12-20T07:44:39.509Z,46.73
2018-12-20T07:47:07.840Z,49.10
2018-12-20T07:49:36.204Z,80.43
2018-12-20T07:52:04.557Z,131.80
2018-12-20T07:54:32.931Z,95.83
2018-12-20T07:57:01.261Z,64.07
2018-12-20T07:59:29.594Z,46.73
2018-12-20T08:01:58.025Z,55.30
2018-12-20T08:04:26.588Z,65.97
2018-12-20T08:06:54.916Z,60.67
2018-12-20T08:09:23.554Z,47.53
2018-12-20T08:11:51.892Z,50.80
2018-12-20T08:14:20.235Z,53.90
2018-12-20T08:16:48.577Z,53.03
2018-12-20T08:19:16.915Z,58.57
2018-12-20T08:21:45.244Z,61.13
2018-12-20T08:24:13.585Z,66.17
2018-12-20T08:26:41.921Z,63.57
2018-12-20T08:29:10.267Z,71.40
2018-12-20T08:31:38.593Z,71.97
2018-12-20T08:34:06.945Z,151.70
2018-12-20T08:36:35.281Z,57.97
2018-12-20T08:39:03.826Z,47.90
2018-12-20T08:41:32.843Z,52.53
2018-12-20T08:44:01.174Z,50.77
2018-12-20T08:46:31.648Z,55.03
2018-12-20T08:48:57.857Z,50.57
2018-12-20T08:51:26.195Z,57.17
2018-12-20T08:53:54.526Z,85.27
2018-12-20T08:56:22.884Z,65.03
2018-12-20T08:58:51.211Z,49.47
2018-12-20T09:01:19.551Z,49.53
2018-12-20T09:03:47.894Z,46.67
2018-12-20T09:06:16.213Z,50.47
2018-12-20T09:08:45.561Z,48.43
2018-12-20T09:11:14.216Z,49.43
2018-12-20T09:13:42.564Z,47.90
2018-12-20T09:16:10.902Z,48.90
2018-12-20T09:18:39.224Z,51.60
2018-12-20T09:21:07.559Z,43.63
2018-12-20T09:23:36.163Z,50.20
2018-12-20T09:26:04.493Z,46.00
2018-12-20T09:28:32.847Z,48.03
2018-12-20T09:31:01.184Z,50.27
2018-12-20T09:33:29.525Z,58.57
2018-12-20T09:35:57.861Z,50.10
2018-12-20T09:38:26.190Z,49.87
2018-12-20T09:40:54.520Z,46.70
2018-12-20T09:43:24.887Z,51.00
2018-12-20T09:45:51.192Z,48.50
2018-12-20T09:48:19.510Z,49.20
2018-12-20T09:50:47.847Z,51.23
2018-12-20T09:53:16.191Z,50.50
2018-12-20T09:55:44.747Z,46.17
2018-12-20T09:58:12.857Z,46.03
2018-12-20T10:00:41.270Z,50.43
2018-12-20T10:03:09.579Z,53.97
2018-12-20T10:05:37.922Z,52.27
2018-12-20T10:08:06.244Z,50.70
2018-12-20T10:10:34.581Z,51.87
2018-12-20T10:13:02.921Z,47.87
2018-12-20T10:15:31.266Z,47.57
2018-12-20T10:17:59.617Z,53.10
2018-12-20T10:20:27.928Z,51.40
2018-12-20T10:22:56.270Z,54.93
2018-12-20T10:25:24.855Z,55.20
2018-12-20T10:27:52.962Z,53.17
2018-12-20T10:30:21.456Z,47.73
2018-12-20T10:32:49.795Z,52.17
2018-12-20T10:35:18.143Z,55.37
2018-12-20T10:37:46.496Z,97.23
2018-12-20T10:40:14.827Z,85.03
2018-12-20T10:42:43.176Z,64.17
2018-12-20T10:45:11.496Z,61.37
2018-12-20T10:47:39.848Z,60.20
2018-12-20T10:50:08.177Z,62.30
2018-12-20T10:52:36.893Z,58.43
2018-12-20T10:55:06.127Z,59.33
2018-12-20T10:57:34.477Z,56.53
2018-12-20T11:00:03.073Z,51.33
2018-12-20T11:02:36.923Z,59.23
2018-12-20T11:05:05.302Z,59.10
2018-12-20T11:07:39.381Z,60.20
2018-12-20T11:10:13.007Z,63.37
2018-12-20T11:12:46.899Z,54.47
2018-12-20T11:15:15.323Z,61.00
2018-12-20T11:17:43.649Z,59.73
2018-12-20T11:20:12.131Z,60.57
2018-12-20T11:22:40.501Z,58.60
2018-12-20T11:25:08.857Z,57.10
2018-12-20T11:27:37.203Z,64.43
2018-12-20T11:30:05.558Z,57.73
2018-12-20T11:32:33.893Z,59.87
2018-12-20T11:35:02.229Z,60.67
2018-12-20T11:37:31.749Z,61.77
2018-12-20T11:39:59.988Z,58.07
2018-12-20T11:42:28.210Z,62.63
2018-12-20T11:44:56.565Z,52.67
2018-12-20T11:47:24.887Z,56.00
2018-12-20T11:49:53.216Z,59.77
2018-12-20T11:52:21.566Z,58.60
2018-12-20T11:54:49.901Z,58.33
2018-12-20T11:57:18.481Z,62.30
2018-12-20T11:59:46.583Z,53.83
2018-12-20T12:02:14.937Z,224.03
2018-12-20T12:04:43.844Z,140.43
2018-12-20T12:07:12.178Z,66.27
2018-12-20T12:09:40.514Z,68.30
2018-12-20T12:12:08.853Z,67.17
2018-12-20T12:14:37.196Z,59.43
2018-12-20T12:17:05.905Z,58.03
2018-12-20T12:19:34.239Z,55.63
2018-12-20T12:22:02.585Z,63.87
2018-12-20T12:24:30.917Z,59.57
2018-12-20T12:26:59.259Z,66.53
2018-12-20T12:29:27.580Z,61.63
2018-12-20T12:31:55.914Z,62.33
2018-12-20T12:34:24.262Z,57.00
2018-12-20T12:36:52.600Z,179.57
2018-12-20T12:39:20.935Z,64.90
2018-12-20T12:41:49.256Z,91.07
2018-12-20T12:44:17.601Z,107.53
2018-12-20T12:46:45.937Z,86.87
2018-12-20T12:49:14.552Z,67.27
2018-12-20T12:51:43.805Z,63.03
2018-12-20T12:54:11.223Z,65.70
2018-12-20T12:56:39.560Z,64.20
2018-12-20T12:59:07.901Z,58.97
2018-12-20T13:01:36.218Z,57.67
2018-12-20T13:04:04.551Z,58.50
2018-12-20T13:06:32.879Z,59.37
2018-12-20T13:09:01.218Z,65.33
2018-12-20T13:11:29.574Z,59.93
2018-12-20T13:13:57.921Z,59.27
2018-12-20T13:16:26.250Z,63.70
2018-12-20T13:18:54.592Z,67.50
2018-12-20T13:21:22.934Z,62.63
2018-12-20T13:23:51.578Z,67.90
2018-12-20T13:26:19.933Z,61.30
2018-12-20T13:28:48.254Z,64.13
2018-12-20T13:31:16.861Z,107.70
2018-12-20T13:33:45.207Z,77.17
2018-12-20T13:36:13.535Z,74.20
2018-12-20T13:38:41.869Z,75.40
2018-12-20T13:41:10.205Z,72.47
2018-12-20T13:43:38.546Z,77.60
2018-12-20T13:46:06.889Z,69.07
2018-12-20T13:48:35.216Z,71.37
2018-12-20T13:51:03.649Z,66.00
2018-12-20T13:53:31.983Z,66.80
2018-12-20T13:56:00.335Z,70.53
2018-12-20T13:58:28.663Z,71.73
2018-12-20T14:00:56.989Z,68.70
2018-12-20T14:03:25.317Z,72.07
2018-12-20T14:05:53.667Z,70.97
2018-12-20T14:08:22.007Z,70.47
2018-12-20T14:10:50.320Z,71.60
2018-12-20T14:13:18.662Z,68.90
2018-12-20T14:15:47.003Z,68.83
2018-12-20T14:18:15.349Z,71.07
2018-12-20T14:20:43.697Z,75.73
2018-12-20T14:23:12.049Z,175.87
2018-12-20T14:25:40.388Z,210.70
2018-12-20T14:28:08.751Z,153.67
2018-12-20T14:30:37.113Z,78.60
2018-12-20T14:33:05.475Z,71.33
2018-12-20T14:35:33.801Z,69.27
2018-12-20T14:38:02.137Z,75.27
2018-12-20T14:40:30.464Z,73.80
2018-12-20T14:42:58.793Z,78.93
2018-12-20T14:45:27.132Z,77.87
2018-12-20T14:47:55.478Z,78.70
2018-12-20T14:50:23.803Z,74.43
2018-12-20T14:52:52.165Z,71.73
2018-12-20T14:55:20.499Z,73.30
2018-12-20T14:57:48.842Z,74.33
2018-12-20T15:00:17.178Z,67.97
2018-12-20T15:02:45.512Z,68.57
2018-12-20T15:05:13.864Z,75.20
2018-12-20T15:07:42.189Z,92.33
2018-12-20T15:10:10.545Z,76.13
2018-12-20T15:12:38.925Z,71.60
2018-12-20T15:15:07.262Z,72.93
2018-12-20T15:17:36.972Z,70.00
2018-12-20T15:20:03.959Z,63.87
2018-12-20T15:22:32.303Z,60.60
2018-12-20T15:25:00.639Z,62.20
2018-12-20T15:27:28.992Z,63.27
2018-12-20T15:29:57.330Z,60.00
2018-12-20T15:32:26.527Z,62.87
2018-12-20T15:34:54.052Z,65.27
2018-12-20T15:37:22.423Z,63.90
2018-12-20T15:39:51.419Z,69.73
2018-12-20T15:42:19.752Z,65.60
2018-12-20T15:44:48.087Z,68.63
2018-12-20T15:47:16.452Z,176.23
2018-12-20T15:49:44.792Z,76.03
2018-12-20T15:52:13.130Z,73.77
2018-12-20T15:54:41.478Z,75.07
2018-12-20T15:57:09.820Z,85.30
2018-12-20T15:59:38.185Z,97.27
2018-12-20T16:02:06.513Z,91.53
2018-12-20T16:04:34.861Z,70.53
2018-12-20T16:07:03.199Z,66.93
2018-12-20T16:09:31.879Z,65.63
2018-12-20T16:12:00.226Z,64.73
2018-12-20T16:14:28.551Z,68.70
2018-12-20T16:16:56.883Z,73.37
2018-12-20T16:19:25.227Z,68.07
2018-12-20T16:21:53.564Z,75.07
2018-12-20T16:24:21.908Z,75.73
2018-12-20T16:26:50.295Z,74.27
2018-12-20T16:29:18.634Z,74.03
2018-12-20T16:31:47.492Z,81.60
2018-12-20T16:34:16.170Z,107.90
2018-12-20T16:36:44.506Z,93.87
2018-12-20T16:39:12.854Z,75.80
2018-12-20T16:41:41.199Z,78.83
2018-12-20T16:44:09.533Z,78.10
2018-12-20T16:46:38.083Z,78.70
2018-12-20T16:49:13.390Z,83.50
2018-12-20T16:51:34.539Z,81.63
2018-12-20T16:54:02.881Z,86.73
2018-12-20T16:56:31.537Z,74.87
2018-12-20T16:58:59.872Z,78.77
2018-12-20T17:01:28.236Z,83.90
2018-12-20T17:03:56.948Z,83.30
2018-12-20T17:06:25.301Z,90.63
2018-12-20T17:08:53.970Z,87.57
2018-12-20T17:11:22.312Z,89.27
2018-12-20T17:13:50.632Z,93.60
2018-12-20T17:16:18.975Z,104.97
2018-12-20T17:18:47.609Z,89.37
2018-12-20T17:21:15.675Z,117.43
2018-12-20T17:23:44.054Z,218.67
2018-12-20T17:26:12.405Z,101.73
2018-12-20T17:28:40.750Z,83.63
2018-12-20T17:31:09.092Z,93.70
2018-12-20T17:33:37.436Z,101.80
2018-12-20T17:36:05.774Z,84.37
2018-12-20T17:38:34.329Z,88.80
2018-12-20T17:41:02.672Z,84.23
2018-12-20T17:43:30.999Z,82.47
2018-12-20T17:45:59.339Z,81.63
2018-12-20T17:48:29.367Z,80.53
2018-12-20T17:50:56.032Z,94.00
2018-12-20T17:53:24.371Z,85.60
2018-12-20T17:55:52.798Z,81.67
2018-12-20T17:58:21.158Z,82.27
2018-12-20T18:00:49.522Z,77.80
2018-12-20T18:03:17.895Z,79.20
2018-12-20T18:05:46.235Z,82.23
2018-12-20T18:08:14.639Z,79.93
2018-12-20T18:10:43.300Z,85.40
2018-12-20T18:13:11.881Z,86.00
2018-12-20T18:15:40.068Z,90.97
2018-12-20T18:18:08.519Z,108.00
2018-12-20T18:20:36.794Z,89.20
2018-12-20T18:23:05.143Z,90.10
2018-12-20T18:25:33.483Z,88.10
2018-12-20T18:28:01.838Z,84.97
2018-12-20T18:30:30.189Z,87.20
2018-12-20T18:32:58.557Z,88.03
2018-12-20T18:35:26.860Z,87.80
2018-12-20T18:37:55.912Z,184.50
2018-12-20T18:40:24.259Z,135.13
2018-12-20T18:42:52.630Z,124.10
2018-12-20T18:45:20.966Z,79.80
2018-12-20T18:47:49.322Z,77.33
2018-12-20T18:50:17.735Z,76.77
2018-12-20T18:52:46.128Z,82.30
2018-12-20T18:55:14.510Z,80.60
2018-12-20T18:57:42.860Z,81.33
2018-12-20T19:00:11.198Z,81.00
2018-12-20T19:02:39.757Z,77.33
2018-12-20T19:05:07.861Z,78.37
2018-12-20T19:07:36.250Z,83.77
2018-12-20T19:10:05.549Z,80.80
2018-12-20T19:12:33.895Z,82.17
2018-12-20T19:15:02.236Z,82.20
2018-12-20T19:17:30.576Z,82.93
2018-12-20T19:19:58.925Z,84.63
2018-12-20T19:22:27.273Z,88.27
2018-12-20T19:24:55.622Z,86.40
2018-12-20T19:27:23.973Z,222.50
2018-12-20T19:29:52.315Z,92.60
2018-12-20T19:32:21.311Z,90.93
2018-12-20T19:34:49.654Z,94.47
2018-12-20T19:37:18.398Z,86.57
2018-12-20T19:39:46.727Z,90.77
2018-12-20T19:42:15.088Z,94.17
2018-12-20T19:44:43.402Z,95.70
2018-12-20T19:47:11.912Z,121.43
2018-12-20T19:49:40.508Z,94.57
2018-12-20T19:52:09.428Z,99.33
2018-12-20T19:54:37.870Z,109.37
2018-12-20T19:57:06.199Z,108.17
2018-12-20T19:59:38.592Z,104.50
2018-12-20T20:02:04.742Z,100.63
2018-12-20T20:04:31.244Z,97.07
2018-12-20T20:06:59.615Z,101.23
2018-12-20T20:09:28.217Z,97.57
2018-12-20T20:11:56.341Z,100.90
2018-12-20T20:14:24.701Z,99.30
2018-12-20T20:16:53.043Z,144.10
2018-12-20T20:19:21.395Z,160.40
2018-12-20T20:21:49.752Z,112.43
2018-12-20T20:24:18.151Z,105.60
2018-12-20T20:26:46.515Z,96.77
2018-12-20T20:29:14.839Z,93.37
2018-12-20T20:31:43.186Z,97.23
2018-12-20T20:34:11.827Z,93.53
2018-12-20T20:36:40.193Z,94.77
2018-12-20T20:39:08.685Z,94.37
2018-12-20T20:41:37.023Z,96.73
2018-12-20T20:44:05.384Z,97.03
2018-12-20T20:46:33.722Z,95.67
2018-12-20T20:49:02.059Z,106.77
2018-12-20T20:51:30.730Z,100.70
2018-12-20T20:53:59.093Z,102.97
2018-12-20T20:56:27.422Z,99.63
2018-12-20T20:58:55.768Z,107.13
2018-12-20T21:01:24.122Z,112.77
2018-12-20T21:03:52.468Z,100.67
2018-12-20T21:06:21.712Z,105.47
2018-12-20T21:08:50.115Z,97.93
2018-12-20T21:11:18.467Z,105.03
2018-12-20T21:13:46.812Z,101.77
2018-12-20T21:16:15.174Z,96.37
2018-12-20T21:18:43.493Z,97.03
2018-12-20T21:21:11.837Z,103.77
2018-12-20T21:23:40.194Z,98.30
2018-12-20T21:26:08.541Z,101.63
2018-12-20T21:28:36.879Z,95.20
2018-12-20T21:31:05.538Z,95.57
2018-12-20T21:33:34.215Z,97.07
2018-12-20T21:36:02.557Z,102.07
2018-12-20T21:38:30.906Z,99.83
2018-12-20T21:40:59.246Z,97.33
2018-12-20T21:43:27.587Z,86.40
2018-12-20T21:45:55.927Z,93.53
2018-12-20T21:48:24.268Z,94.43
2018-12-20T22:08:49.572Z,92.73
2018-12-20T22:11:17.920Z,95.87
2018-12-20T22:13:46.256Z,87.90
2018-12-20T22:16:14.688Z,90.07
2018-12-20T22:18:43.138Z,87.83
2018-12-20T22:21:11.492Z,96.77
2018-12-20T22:23:39.847Z,95.40
2018-12-20T22:26:08.249Z,86.97
2018-12-20T22:28:36.598Z,87.20
2018-12-20T22:31:04.960Z,90.40
2018-12-20T22:33:33.289Z,91.83
2018-12-20T22:36:01.689Z,87.90
2018-12-20T22:38:30.035Z,90.17
2018-12-20T22:40:58.371Z,86.90
2018-12-20T22:43:26.701Z,81.87
2018-12-20T22:45:55.278Z,89.33
2018-12-20T22:48:23.407Z,87.03
2018-12-20T22:50:55.915Z,94.17
2018-12-20T22:53:20.072Z,87.97
2018-12-20T22:55:48.400Z,81.27
2018-12-20T22:58:16.751Z,84.57
2018-12-20T23:00:45.086Z,80.50
2018-12-20T23:03:13.686Z,82.50
2018-12-20T23:05:41.818Z,84.73
2018-12-20T23:08:10.183Z,78.50
2018-12-20T23:10:38.516Z,82.93
2018-12-20T23:13:06.847Z,81.07
2018-12-20T23:15:35.206Z,84.80
2018-12-20T23:18:03.574Z,85.20
2018-12-20T23:20:31.926Z,78.00
2018-12-20T23:23:00.262Z,82.27
2018-12-20T23:25:28.584Z,78.07
2018-12-20T23:27:56.919Z,82.83
2018-12-20T23:30:26.279Z,85.70
2018-12-20T23:32:54.624Z,79.50
2018-12-20T23:35:22.967Z,77.00
2018-12-20T23:37:51.308Z,77.83
2018-12-20T23:40:19.647Z,75.20
2018-12-20T23:42:48.017Z,76.73
2018-12-20T23:45:16.344Z,76.57
2018-12-20T23:47:44.672Z,76.73
2018-12-20T23:50:13.012Z,73.97
2018-12-20T23:52:41.361Z,74.93
2018-12-20T23:55:09.702Z,77.87
2018-12-20T23:57:38.054Z,76.53
